createdAt,value
2022-09-17T00:00:02.071Z,2.10
2022-09-17T00:02:31.427Z,1.20
2022-09-17T00:05:04.716Z,3.03
2022-09-17T00:07:36.427Z,1.87
2022-09-17T00:10:07.333Z,1.87
2022-09-17T00:12:37.520Z,1.77
2022-09-17T00:15:09.752Z,2.33
2022-09-17T00:17:40.588Z,1.17
2022-09-17T00:20:16.628Z,1.77
2022-09-17T00:22:46.670Z,1.20
2022-09-17T00:25:17.086Z,1.13
2022-09-17T00:27:52.620Z,2.87
2022-09-17T00:30:23.172Z,1.57
2022-09-17T00:33:11.946Z,1.67
2022-09-17T00:35:40.406Z,3.63
2022-09-17T00:38:13.318Z,2.10
2022-09-17T00:40:43.761Z,2.20
2022-09-17T00:43:17.084Z,1.43
2022-09-17T00:45:46.457Z,1.80
2022-09-17T00:48:16.483Z,1.50
2022-09-17T00:50:50.531Z,1.20
2022-09-17T00:53:23.693Z,1.37
2022-09-17T00:56:15.731Z,1.50
2022-09-17T00:58:43.173Z,1.23
2022-09-17T01:01:11.754Z,1.30
2022-09-17T01:03:42.169Z,1.50
2022-09-17T01:06:13.246Z,1.53
2022-09-17T01:08:52.193Z,1.17
2022-09-17T01:11:39.856Z,1.43
2022-09-17T01:14:29.436Z,1.17
2022-09-17T01:17:10.146Z,2.10
2022-09-17T01:19:45.620Z,1.63
2022-09-17T01:22:34.223Z,2.70
2022-09-17T01:25:33.776Z,2.57
2022-09-17T01:28:21.806Z,1.87
2022-09-17T01:31:20.569Z,1.27
2022-09-17T01:34:03.909Z,2.83
2022-09-17T01:36:51.656Z,1.17
2022-09-17T01:39:37.609Z,2.70
2022-09-17T01:42:19.646Z,0.80
2022-09-17T01:45:06.532Z,1.53
2022-09-17T01:47:39.843Z,1.70
2022-09-17T01:50:12.855Z,1.03
2022-09-17T01:55:38.699Z,1.27
2022-09-17T01:58:18.976Z,2.60
2022-09-17T02:00:51.627Z,1.20
2022-09-17T02:03:39.190Z,1.37
2022-09-17T02:06:39.255Z,2.13
2022-09-17T02:09:30.757Z,2.07
2022-09-17T02:12:04.479Z,2.63
2022-09-17T02:14:55.301Z,0.67
2022-09-17T02:17:31.532Z,2.80
2022-09-17T02:20:05.335Z,2.43
2022-09-17T02:22:42.686Z,1.93
2022-09-17T02:25:13.752Z,2.20
2022-09-17T02:27:53.720Z,2.90
2022-09-17T02:30:22.316Z,2.47
2022-09-17T02:32:54.601Z,2.77
2022-09-17T02:38:04.169Z,1.27
2022-09-17T02:40:37.875Z,1.90
2022-09-17T02:43:12.607Z,1.40
2022-09-17T02:46:10.953Z,3.57
2022-09-17T02:48:45.675Z,1.90
2022-09-17T02:51:36.922Z,3.10
2022-09-17T02:54:06.431Z,3.40
2022-09-17T02:56:40.385Z,1.67
2022-09-17T02:59:12.672Z,1.27
2022-09-17T03:01:46.698Z,1.53
2022-09-17T03:04:17.257Z,1.60
2022-09-17T03:06:55.563Z,1.47
2022-09-17T03:09:27.810Z,2.17
2022-09-17T03:12:01.307Z,2.33
2022-09-17T03:14:31.294Z,1.53
2022-09-17T03:17:00.863Z,1.30
2022-09-17T03:19:33.564Z,2.40
2022-09-17T03:22:03.475Z,1.90
2022-09-17T03:24:32.621Z,2.80
2022-09-17T03:27:04.273Z,1.17
2022-09-17T03:29:34.871Z,2.10
2022-09-17T03:32:08.381Z,1.53
2022-09-17T03:34:37.014Z,1.30
2022-09-17T03:37:09.212Z,1.27
2022-09-17T03:39:40.917Z,3.07
2022-09-17T03:42:11.013Z,1.47
2022-09-17T03:44:45.315Z,1.87
2022-09-17T03:47:19.187Z,1.30
2022-09-17T03:49:51.034Z,2.10
2022-09-17T03:52:24.456Z,1.83
2022-09-17T03:54:53.690Z,1.77
2022-09-17T03:57:27.877Z,1.67
2022-09-17T04:00:02.636Z,2.03
2022-09-17T04:02:32.911Z,1.93
2022-09-17T04:05:06.944Z,1.17
2022-09-17T04:07:35.527Z,1.30
2022-09-17T04:10:05.497Z,1.77
2022-09-17T04:12:36.272Z,2.07
2022-09-17T04:15:05.349Z,1.77
2022-09-17T04:17:35.016Z,2.03
2022-09-17T04:20:08.963Z,2.13
2022-09-17T04:22:37.890Z,1.83
2022-09-17T04:25:12.042Z,2.40
2022-09-17T04:27:43.389Z,1.70
2022-09-17T04:30:18.504Z,1.33
2022-09-17T04:32:50.008Z,2.50
2022-09-17T04:35:22.529Z,1.47
2022-09-17T04:37:58.598Z,1.40
2022-09-17T04:40:27.748Z,2.00
2022-09-17T04:43:14.624Z,2.53
2022-09-17T04:45:45.223Z,0.97
2022-09-17T04:48:17.114Z,1.30
2022-09-17T04:50:49.038Z,2.07
2022-09-17T04:53:20.735Z,1.43
2022-09-17T04:55:53.291Z,1.60
2022-09-17T04:58:23.113Z,1.67
2022-09-17T05:00:55.286Z,1.73
2022-09-17T05:03:25.271Z,1.53
2022-09-17T05:05:53.793Z,1.20
2022-09-17T05:08:26.056Z,1.23
2022-09-17T05:10:59.028Z,1.77
2022-09-17T05:13:31.291Z,2.10
2022-09-17T05:16:02.336Z,4.23
2022-09-17T05:18:30.612Z,2.53
2022-09-17T05:21:00.289Z,1.37
2022-09-17T05:23:32.180Z,1.33
2022-09-17T05:26:09.872Z,0.90
2022-09-17T05:28:42.107Z,1.77
2022-09-17T05:31:14.000Z,2.57
2022-09-17T05:33:42.984Z,1.03
2022-09-17T05:36:17.303Z,1.67
2022-09-17T05:38:49.783Z,2.37
2022-09-17T05:41:20.341Z,2.20
2022-09-17T05:43:51.636Z,1.80
2022-09-17T05:46:22.103Z,2.73
2022-09-17T05:48:52.065Z,4.00
2022-09-17T05:51:34.575Z,2.03
2022-09-17T05:54:05.084Z,2.40
2022-09-17T05:56:36.124Z,1.07
2022-09-17T05:59:07.314Z,2.17
2022-09-17T06:01:39.287Z,1.67
2022-09-17T06:04:15.502Z,1.63
2022-09-17T06:06:48.506Z,4.67
2022-09-17T06:09:19.437Z,3.53
2022-09-17T06:11:50.354Z,2.43
2022-09-17T06:14:20.943Z,1.37
2022-09-17T06:16:51.087Z,1.87
2022-09-17T06:19:21.515Z,2.20
2022-09-17T06:21:51.439Z,2.23
2022-09-17T06:24:23.214Z,1.87
2022-09-17T06:27:04.290Z,1.37
2022-09-17T06:29:31.563Z,1.73
2022-09-17T06:32:05.187Z,1.50
2022-09-17T06:34:35.184Z,1.63
2022-09-17T06:37:06.563Z,2.53
2022-09-17T06:39:35.117Z,1.77
2022-09-17T06:42:08.201Z,3.80
2022-09-17T06:44:38.264Z,7.27
2022-09-17T06:47:13.535Z,3.57
2022-09-17T06:49:44.321Z,2.50
2022-09-17T06:52:17.054Z,4.60
2022-09-17T06:54:46.457Z,2.00
2022-09-17T06:57:21.490Z,2.90
2022-09-17T06:59:53.335Z,4.27
2022-09-17T07:02:24.497Z,4.33
2022-09-17T07:04:55.600Z,2.13
2022-09-17T07:07:27.794Z,2.40
2022-09-17T07:09:57.299Z,5.23
2022-09-17T07:12:29.034Z,3.10
2022-09-17T07:14:59.813Z,5.73
2022-09-17T07:17:30.294Z,5.77
2022-09-17T07:20:01.336Z,2.53
2022-09-17T07:22:32.879Z,5.17
2022-09-17T07:25:05.121Z,4.27
2022-09-17T07:27:36.277Z,4.63
2022-09-17T07:30:09.271Z,5.07
2022-09-17T07:32:41.382Z,4.77
2022-09-17T07:35:14.580Z,3.50
2022-09-17T07:37:46.359Z,2.73
2022-09-17T07:40:18.221Z,3.53
2022-09-17T07:42:52.337Z,6.27
2022-09-17T07:45:24.430Z,5.07
2022-09-17T07:47:55.387Z,5.93
2022-09-17T07:50:24.696Z,6.97
2022-09-17T07:52:54.403Z,6.37
2022-09-17T07:55:23.883Z,4.93
2022-09-17T07:58:02.867Z,6.93
2022-09-17T08:00:31.778Z,8.83
2022-09-17T08:03:03.990Z,9.17
2022-09-17T08:05:36.542Z,23.67
2022-09-17T08:08:07.046Z,27.83
2022-09-17T08:10:40.982Z,33.80
2022-09-17T08:13:12.259Z,21.57
2022-09-17T08:15:47.202Z,25.90
2022-09-17T08:18:20.905Z,18.07
2022-09-17T08:20:52.971Z,17.37
2022-09-17T08:23:21.436Z,15.13
2022-09-17T08:28:51.445Z,10.30
2022-09-17T08:31:22.935Z,12.73
2022-09-17T08:33:53.427Z,10.90
2022-09-17T08:36:28.421Z,11.33
2022-09-17T08:41:54.818Z,13.03
2022-09-17T08:44:31.210Z,7.57
2022-09-17T08:47:14.312Z,13.07
2022-09-17T08:50:02.093Z,8.87
2022-09-17T08:52:36.747Z,13.43
2022-09-17T08:55:39.419Z,12.40
2022-09-17T08:58:33.659Z,9.87
2022-09-17T09:01:34.323Z,9.87
2022-09-17T09:04:23.415Z,7.90
2022-09-17T09:07:01.837Z,6.23
2022-09-17T09:09:35.124Z,8.50
2022-09-17T09:12:16.912Z,8.90
2022-09-17T09:14:57.791Z,6.30
2022-09-17T09:17:30.885Z,7.37
2022-09-17T09:20:01.631Z,5.87
2022-09-17T09:22:50.943Z,5.40
2022-09-17T09:25:41.485Z,6.33
2022-09-17T09:28:28.770Z,4.33
2022-09-17T09:31:15.700Z,5.93
2022-09-17T09:33:48.061Z,3.30
2022-09-17T09:36:24.204Z,3.90
2022-09-17T09:39:01.049Z,5.83
2022-09-17T09:41:36.034Z,6.83
2022-09-17T09:44:05.484Z,7.67
2022-09-17T09:46:56.749Z,3.77
2022-09-17T09:49:53.870Z,7.37
2022-09-17T09:52:36.956Z,6.57
2022-09-17T09:55:17.202Z,4.67
2022-09-17T09:57:59.793Z,4.60
2022-09-17T10:00:32.236Z,3.77
2022-09-17T10:03:29.599Z,4.43
2022-09-17T10:08:54.798Z,3.47
2022-09-17T10:11:30.588Z,3.47
2022-09-17T10:14:23.950Z,3.50
2022-09-17T10:17:13.616Z,5.00
2022-09-17T10:19:43.247Z,2.97
2022-09-17T10:22:25.197Z,2.97
2022-09-17T10:24:58.851Z,4.00
2022-09-17T10:27:29.570Z,4.93
2022-09-17T10:30:31.553Z,3.10
2022-09-17T10:33:13.288Z,2.50
2022-09-17T10:35:41.571Z,3.57
2022-09-17T10:38:27.210Z,3.83
2022-09-17T10:41:12.760Z,5.70
2022-09-17T10:43:44.260Z,1.63
2022-09-17T10:46:17.402Z,4.93
2022-09-17T10:49:02.001Z,24.27
2022-09-17T10:51:30.373Z,5.67
2022-09-17T10:54:06.856Z,3.57
2022-09-17T10:56:44.349Z,2.27
2022-09-17T10:59:32.056Z,2.37
2022-09-17T11:02:18.369Z,3.13
2022-09-17T11:05:04.319Z,2.97
2022-09-17T11:08:04.034Z,1.73
2022-09-17T11:10:47.416Z,4.70
2022-09-17T11:13:25.520Z,2.03
2022-09-17T11:19:05.758Z,4.83
2022-09-17T11:21:37.457Z,4.20
2022-09-17T11:24:24.140Z,7.23
2022-09-17T11:27:08.456Z,5.03
2022-09-17T11:29:56.808Z,9.07
2022-09-17T11:32:41.430Z,4.87
2022-09-17T11:35:24.918Z,5.20
2022-09-17T11:41:08.925Z,11.90
2022-09-17T11:43:43.083Z,12.57
2022-09-17T11:46:23.377Z,11.10
2022-09-17T11:49:03.691Z,4.13
2022-09-17T11:51:47.330Z,6.90
2022-09-17T11:54:31.366Z,6.93
2022-09-17T11:57:13.709Z,14.00
2022-09-17T11:59:48.065Z,14.47
2022-09-17T12:02:21.254Z,14.07
2022-09-17T12:05:06.009Z,16.67
2022-09-17T12:07:51.935Z,7.30
2022-09-17T12:10:28.618Z,11.30
2022-09-17T12:13:07.436Z,11.93
2022-09-17T12:15:38.438Z,11.60
2022-09-17T12:18:31.158Z,12.80
2022-09-17T12:21:10.855Z,9.60
2022-09-17T12:23:44.856Z,14.33
2022-09-17T12:26:51.137Z,7.97
2022-09-17T12:29:30.096Z,5.53
2022-09-17T12:32:08.563Z,7.60
2022-09-17T12:34:35.866Z,7.30
2022-09-17T12:37:41.319Z,7.17
2022-09-17T12:40:34.336Z,6.77
2022-09-17T12:43:20.558Z,9.43
2022-09-17T12:49:04.354Z,5.30
2022-09-17T12:51:48.278Z,15.93
2022-09-17T12:54:45.114Z,16.50
2022-09-17T12:57:25.801Z,13.80
2022-09-17T13:00:18.082Z,22.47
2022-09-17T13:02:49.443Z,21.10
2022-09-17T13:05:40.224Z,21.37
2022-09-17T13:08:07.674Z,20.40
2022-09-17T13:10:41.919Z,25.33
2022-09-17T13:16:35.566Z,37.60
2022-09-17T13:19:21.799Z,27.43
2022-09-17T13:22:02.822Z,31.40
2022-09-17T13:24:33.815Z,18.87
2022-09-17T13:27:05.662Z,34.10
2022-09-17T13:29:46.697Z,28.67
2022-09-17T13:32:36.348Z,29.33
2022-09-17T13:35:13.332Z,15.00
2022-09-17T13:37:44.588Z,10.30
2022-09-17T13:40:38.042Z,18.75
2022-09-17T13:43:19.251Z,13.77
2022-09-17T13:48:53.760Z,30.13
2022-09-17T13:51:36.226Z,48.97
2022-09-17T13:54:13.236Z,26.13
2022-09-17T13:56:45.476Z,34.17
2022-09-17T13:59:26.548Z,18.00
2022-09-17T14:02:20.572Z,17.87
2022-09-17T14:04:52.105Z,14.50
2022-09-17T14:07:36.389Z,15.73
2022-09-17T14:10:26.058Z,12.00
2022-09-17T14:12:59.664Z,11.63
2022-09-17T14:15:47.889Z,13.00
2022-09-17T14:18:34.091Z,12.97
2022-09-17T14:21:17.124Z,12.67
2022-09-17T14:23:50.210Z,9.37
2022-09-17T14:26:42.141Z,13.37
2022-09-17T14:29:10.620Z,10.70
2022-09-17T14:31:48.877Z,9.90
2022-09-17T14:34:30.136Z,6.20
2022-09-17T14:37:01.258Z,6.87
2022-09-17T14:39:31.173Z,6.70
2022-09-17T14:42:01.604Z,8.43
2022-09-17T14:44:39.876Z,5.23
2022-09-17T14:47:11.079Z,3.73
2022-09-17T14:49:43.047Z,5.73
2022-09-17T14:52:31.546Z,4.63
2022-09-17T14:55:20.870Z,5.87
2022-09-17T14:57:56.280Z,6.27
2022-09-17T15:00:38.213Z,7.37
2022-09-17T15:03:18.253Z,5.93
2022-09-17T15:05:53.657Z,7.20
2022-09-17T15:08:36.074Z,11.50
2022-09-17T15:11:09.511Z,8.07
2022-09-17T15:13:53.546Z,4.80
2022-09-17T15:16:35.059Z,4.97
2022-09-17T15:19:06.364Z,11.93
2022-09-17T15:21:40.218Z,11.53
2022-09-17T15:24:30.189Z,13.20
2022-09-17T15:27:06.408Z,9.87
2022-09-17T15:29:38.093Z,14.73
2022-09-17T15:32:10.136Z,12.83
2022-09-17T15:34:40.526Z,11.30
2022-09-17T15:37:32.372Z,13.13
2022-09-17T15:42:52.213Z,7.13
2022-09-17T15:45:22.101Z,6.30
2022-09-17T15:48:01.428Z,9.10
2022-09-17T15:50:34.648Z,7.33
2022-09-17T15:53:13.228Z,11.03
2022-09-17T15:55:53.796Z,8.33
2022-09-17T15:58:52.844Z,4.20
2022-09-17T16:01:44.327Z,6.93
2022-09-17T16:04:23.100Z,4.17
2022-09-17T16:07:20.681Z,7.40
2022-09-17T16:09:52.527Z,4.90
2022-09-17T16:12:22.497Z,6.40
2022-09-17T16:14:58.586Z,6.30
2022-09-17T16:17:34.274Z,7.73
2022-09-17T16:20:27.986Z,4.40
2022-09-17T16:22:59.546Z,4.43
2022-09-17T16:25:32.085Z,5.67
2022-09-17T16:28:04.216Z,5.27
2022-09-17T16:30:35.004Z,7.57
2022-09-17T16:33:04.031Z,4.90
2022-09-17T16:35:36.583Z,7.27
2022-09-17T16:38:08.735Z,4.03
2022-09-17T16:40:44.042Z,4.67
2022-09-17T16:43:16.386Z,5.20
2022-09-17T16:45:48.524Z,6.03
2022-09-17T16:48:17.265Z,6.53
2022-09-17T16:50:45.714Z,3.27
2022-09-17T16:53:16.410Z,2.97
2022-09-17T16:55:50.430Z,3.60
2022-09-17T16:58:29.871Z,3.10
2022-09-17T17:01:03.142Z,4.00
2022-09-17T17:03:44.877Z,5.03
2022-09-17T17:06:23.251Z,6.03
2022-09-17T17:08:54.797Z,4.23
2022-09-17T17:11:23.377Z,4.33
2022-09-17T17:13:53.055Z,4.43
2022-09-17T17:16:26.723Z,3.50
2022-09-17T17:18:58.386Z,4.37
2022-09-17T17:21:32.585Z,3.07
2022-09-17T17:24:04.352Z,4.57
2022-09-17T17:26:34.470Z,5.37
2022-09-17T17:29:02.831Z,3.80
2022-09-17T17:34:16.338Z,5.20
2022-09-17T17:36:45.245Z,3.77
2022-09-17T17:39:16.892Z,5.77
2022-09-17T17:41:51.787Z,7.10
2022-09-17T17:44:23.693Z,6.73
2022-09-17T17:46:55.387Z,4.00
2022-09-17T17:49:23.194Z,4.70
2022-09-17T17:51:54.894Z,4.67
2022-09-17T17:54:26.563Z,5.73
2022-09-17T17:57:04.032Z,3.93
2022-09-17T17:59:38.579Z,2.33
2022-09-17T18:02:11.106Z,7.17
2022-09-17T18:04:42.567Z,4.57
2022-09-17T18:07:13.500Z,4.60
2022-09-17T18:09:42.193Z,4.77
2022-09-17T18:12:16.043Z,4.43
2022-09-17T18:14:47.359Z,6.27
2022-09-17T18:17:23.038Z,4.50
2022-09-17T18:19:52.875Z,4.63
2022-09-17T18:22:32.672Z,4.17
2022-09-17T18:25:06.288Z,6.77
2022-09-17T18:27:38.604Z,4.57
2022-09-17T18:30:10.936Z,6.00
2022-09-17T18:35:38.967Z,5.47
2022-09-17T18:38:09.901Z,3.37
2022-09-17T18:40:40.900Z,3.10
2022-09-17T18:43:18.847Z,3.37
2022-09-17T18:46:00.299Z,4.13
2022-09-17T18:48:33.148Z,10.10
2022-09-17T18:51:06.697Z,4.67
2022-09-17T18:53:40.591Z,3.97
2022-09-17T18:56:17.096Z,4.40
2022-09-17T19:01:41.495Z,3.83
2022-09-17T19:04:14.210Z,6.07
2022-09-17T19:06:45.811Z,2.23
2022-09-17T19:09:16.003Z,2.23
2022-09-17T19:11:46.982Z,1.73
2022-09-17T19:14:16.660Z,4.07
2022-09-17T19:16:49.306Z,4.40
2022-09-17T19:19:21.980Z,2.37
2022-09-17T19:21:54.316Z,1.80
2022-09-17T19:24:24.124Z,4.57
2022-09-17T19:26:55.783Z,2.67
2022-09-17T19:29:23.572Z,3.00
2022-09-17T19:31:52.490Z,3.07
2022-09-17T19:34:23.780Z,2.20
2022-09-17T19:36:55.771Z,5.47
2022-09-17T19:39:25.342Z,2.63
2022-09-17T19:41:55.668Z,3.00
2022-09-17T19:44:28.629Z,2.80
2022-09-17T19:46:56.680Z,4.33
2022-09-17T19:49:27.016Z,4.00
2022-09-17T19:51:59.284Z,2.23
2022-09-17T19:54:30.889Z,2.50
2022-09-17T19:57:02.647Z,2.23
2022-09-17T19:59:32.586Z,2.70
2022-09-17T20:02:04.042Z,2.70
2022-09-17T20:04:36.239Z,2.80
2022-09-17T20:07:06.801Z,4.47
2022-09-17T20:09:38.750Z,3.43
2022-09-17T20:12:08.669Z,2.40
2022-09-17T20:14:38.097Z,1.90
2022-09-17T20:19:54.694Z,2.00
2022-09-17T20:22:26.206Z,1.73
2022-09-17T20:24:54.851Z,1.57
2022-09-17T20:27:25.493Z,2.97
2022-09-17T20:29:55.508Z,1.40
2022-09-17T20:32:25.922Z,1.83
2022-09-17T20:34:55.635Z,2.53
2022-09-17T20:37:47.066Z,2.77
2022-09-17T20:40:18.171Z,8.27
2022-09-17T20:42:50.920Z,6.80
2022-09-17T20:45:21.523Z,13.70
2022-09-17T20:47:51.293Z,8.20
2022-09-17T20:50:22.837Z,2.60
2022-09-17T20:52:57.689Z,7.40
2022-09-17T20:55:34.061Z,4.53
2022-09-17T20:58:13.288Z,8.40
2022-09-17T21:00:45.842Z,7.17
2022-09-17T21:03:16.403Z,2.97
2022-09-17T21:05:49.045Z,4.97
2022-09-17T21:08:20.048Z,3.27
2022-09-17T21:10:54.139Z,3.17
2022-09-17T21:13:26.178Z,3.60
2022-09-17T21:16:00.865Z,2.70
2022-09-17T21:18:29.818Z,2.80
2022-09-17T21:21:03.643Z,3.37
2022-09-17T21:23:37.255Z,2.13
2022-09-17T21:26:19.224Z,2.23
2022-09-17T21:28:50.175Z,5.20
2022-09-17T21:31:36.034Z,1.93
2022-09-17T21:34:12.140Z,2.50
2022-09-17T21:36:50.193Z,1.50
2022-09-17T21:39:23.212Z,3.70
2022-09-17T21:41:55.230Z,2.87
2022-09-17T21:44:27.488Z,2.50
2022-09-17T21:49:42.648Z,2.03
2022-09-17T21:52:25.108Z,1.33
2022-09-17T21:54:54.819Z,1.90
2022-09-17T21:57:27.140Z,2.30
2022-09-17T21:59:57.318Z,2.10
2022-09-17T22:02:30.003Z,2.53
2022-09-17T22:05:02.131Z,2.10
2022-09-17T22:07:33.398Z,2.17
2022-09-17T22:10:02.764Z,3.50
2022-09-17T22:12:34.799Z,2.53
2022-09-17T22:15:07.472Z,1.90
2022-09-17T22:17:37.152Z,1.43
2022-09-17T22:20:09.961Z,1.53
2022-09-17T22:22:41.701Z,2.27
2022-09-17T22:25:09.398Z,1.27
2022-09-17T22:27:40.752Z,2.23
2022-09-17T22:30:14.750Z,2.83
2022-09-17T22:32:47.576Z,1.77
2022-09-17T22:35:22.543Z,2.30
2022-09-17T22:37:54.885Z,1.47
2022-09-17T22:40:24.753Z,1.50
2022-09-17T22:42:52.909Z,1.20
2022-09-17T22:45:21.070Z,2.00
2022-09-17T22:47:53.350Z,1.40
2022-09-17T22:50:22.469Z,3.40
2022-09-17T22:52:54.023Z,1.33
2022-09-17T22:55:28.817Z,2.37
2022-09-17T22:58:00.115Z,1.97
2022-09-17T23:00:35.389Z,3.03
2022-09-17T23:03:13.292Z,1.30
2022-09-17T23:05:49.798Z,1.60
2022-09-17T23:08:19.713Z,1.20
2022-09-17T23:10:51.658Z,1.70
2022-09-17T23:13:20.350Z,3.87
2022-09-17T23:15:50.875Z,1.57
2022-09-17T23:18:21.679Z,1.73
2022-09-17T23:21:04.036Z,1.70
2022-09-17T23:23:35.970Z,6.00
2022-09-17T23:26:09.180Z,2.30
2022-09-17T23:28:37.047Z,5.00
2022-09-17T23:31:19.310Z,2.70
2022-09-17T23:33:54.576Z,1.47
2022-09-17T23:36:29.493Z,1.53
2022-09-17T23:39:00.268Z,2.53
2022-09-17T23:41:34.798Z,2.30
2022-09-17T23:44:14.980Z,1.10
2022-09-17T23:46:46.898Z,1.33
2022-09-17T23:49:17.127Z,1.93
2022-09-17T23:51:46.021Z,3.40
2022-09-17T23:54:15.336Z,1.90
2022-09-17T23:56:47.109Z,1.20
2022-09-17T23:59:19.269Z,1.80
